createdAt,value
2019-06-01T00:00:11.340Z,0.00
2019-06-01T00:01:07.361Z,0.00
2019-06-01T00:02:07.291Z,0.00
2019-06-01T00:03:07.209Z,0.00
2019-06-01T00:04:07.123Z,0.00
2019-06-01T00:05:07.061Z,0.00
2019-06-01T00:06:06.962Z,0.00
2019-06-01T00:07:06.888Z,0.00
2019-06-01T00:08:06.812Z,0.00
2019-06-01T00:09:06.724Z,0.00
2019-06-01T00:10:06.651Z,0.00
2019-06-01T00:11:06.575Z,0.00
2019-06-01T00:12:06.494Z,0.00
2019-06-01T00:13:06.413Z,0.00
2019-06-01T00:14:06.329Z,0.00
2019-06-01T00:15:06.251Z,0.00
2019-06-01T00:16:06.164Z,0.00
2019-06-01T00:17:06.091Z,0.00
2019-06-01T00:18:05.999Z,0.00
2019-06-01T00:19:05.925Z,0.00
2019-06-01T00:20:05.851Z,0.00
2019-06-01T00:21:05.774Z,0.00
2019-06-01T00:22:05.686Z,0.00
2019-06-01T00:23:05.619Z,0.00
2019-06-01T00:24:05.525Z,0.00
2019-06-01T00:25:05.452Z,0.00
2019-06-01T00:26:05.379Z,0.00
2019-06-01T00:27:05.291Z,0.00
2019-06-01T00:28:05.212Z,0.00
2019-06-01T00:29:05.138Z,0.00
2019-06-01T00:30:05.068Z,0.00
2019-06-01T00:31:04.976Z,0.00
2019-06-01T00:32:04.900Z,0.00
2019-06-01T00:33:04.812Z,0.00
2019-06-01T00:34:04.739Z,0.00
2019-06-01T00:35:04.667Z,0.00
2019-06-01T00:36:04.578Z,0.00
2019-06-01T00:37:04.502Z,0.00
2019-06-01T00:38:04.426Z,0.00
2019-06-01T00:39:04.339Z,0.00
2019-06-01T00:40:04.267Z,0.00
2019-06-01T00:41:04.196Z,0.00
2019-06-01T00:42:04.102Z,0.00
2019-06-01T00:43:04.030Z,0.00
2019-06-01T00:44:03.940Z,0.00
2019-06-01T00:45:03.863Z,0.00
2019-06-01T00:46:03.789Z,0.00
2019-06-01T00:47:03.704Z,0.00
2019-06-01T00:48:03.627Z,0.00
2019-06-01T00:49:03.558Z,0.00
2019-06-01T00:50:03.465Z,0.00
2019-06-01T00:51:03.390Z,0.00
2019-06-01T00:52:03.327Z,0.00
2019-06-01T00:53:03.243Z,0.00
2019-06-01T00:54:03.168Z,0.00
2019-06-01T00:55:03.093Z,0.00
2019-06-01T00:56:03.005Z,0.00
2019-06-01T00:57:02.930Z,0.00
2019-06-01T00:58:02.855Z,0.00
2019-06-01T00:59:02.767Z,0.00
2019-06-01T01:00:02.693Z,0.00
2019-06-01T01:01:02.617Z,0.00
2019-06-01T01:02:02.533Z,0.00
2019-06-01T01:03:02.467Z,0.00
2019-06-01T01:04:02.368Z,0.00
2019-06-01T01:05:02.293Z,0.00
2019-06-01T01:06:02.224Z,0.00
2019-06-01T01:07:02.131Z,0.00
2019-06-01T01:08:02.069Z,0.00
2019-06-01T01:09:01.985Z,0.00
2019-06-01T01:10:01.893Z,0.00
2019-06-01T01:11:01.819Z,0.00
2019-06-01T01:12:01.744Z,0.00
2019-06-01T01:13:01.656Z,0.00
2019-06-01T01:14:01.580Z,0.00
2019-06-01T01:15:01.618Z,0.00
2019-06-01T01:16:01.419Z,0.00
2019-06-01T01:17:01.344Z,0.00
2019-06-01T01:18:01.258Z,0.00
2019-06-01T01:19:01.181Z,0.00
2019-06-01T01:20:01.106Z,0.00
2019-06-01T01:21:01.021Z,0.00
2019-06-01T01:22:00.951Z,0.00
2019-06-01T01:23:00.873Z,0.00
2019-06-01T01:24:00.782Z,0.00
2019-06-01T01:25:00.707Z,0.00
2019-06-01T01:26:00.634Z,0.00
2019-06-01T01:27:00.557Z,0.00
2019-06-01T01:28:00.473Z,0.00
2019-06-01T01:29:00.384Z,0.00
2019-06-01T01:30:00.309Z,0.00
2019-06-01T01:31:11.698Z,0.00
2019-06-01T01:32:00.147Z,0.00
2019-06-01T01:33:00.070Z,0.00
2019-06-01T01:34:00.000Z,0.00
2019-06-01T01:34:59.921Z,0.00
2019-06-01T01:35:59.833Z,0.00
2019-06-01T01:36:59.760Z,0.00
2019-06-01T01:37:59.671Z,0.00
2019-06-01T01:38:59.600Z,0.00
2019-06-01T01:39:59.511Z,0.00
2019-06-01T01:40:59.544Z,0.00
2019-06-01T01:41:59.359Z,0.00
2019-06-01T01:42:59.274Z,0.00
2019-06-01T01:43:59.197Z,0.00
2019-06-01T01:44:59.121Z,0.00
2019-06-01T01:45:59.089Z,0.00
2019-06-01T01:46:59.067Z,0.00
2019-06-01T01:47:59.226Z,0.00
2019-06-01T01:48:58.798Z,0.00
2019-06-01T01:49:58.722Z,0.00
2019-06-01T01:50:58.679Z,0.00
2019-06-01T01:51:59.445Z,0.00
2019-06-01T01:52:59.002Z,0.00
2019-06-01T01:53:58.803Z,0.00
2019-06-01T01:54:58.940Z,0.00
2019-06-01T01:55:59.064Z,0.00
2019-06-01T01:56:58.250Z,0.00
2019-06-01T01:57:59.412Z,0.00
2019-06-01T01:58:58.428Z,0.00
2019-06-01T01:59:57.928Z,0.00
2019-06-01T02:00:58.526Z,0.00
2019-06-01T02:01:58.587Z,0.00
2019-06-01T02:02:57.985Z,0.00
2019-06-01T02:03:58.962Z,0.00
2019-06-01T02:04:57.832Z,0.00
2019-06-01T02:05:57.452Z,0.00
2019-06-01T02:06:58.443Z,0.00
2019-06-01T02:07:57.287Z,0.00
2019-06-01T02:08:57.213Z,0.00
2019-06-01T02:09:57.216Z,0.00
2019-06-01T02:10:57.456Z,0.00
2019-06-01T02:11:57.688Z,0.00
2019-06-01T02:12:57.546Z,4.00
2019-06-01T02:13:57.759Z,4.00
2019-06-01T02:14:57.680Z,4.00
2019-06-01T02:15:58.151Z,4.00
2019-06-01T02:16:58.006Z,0.00
2019-06-01T02:17:56.489Z,4.00
2019-06-01T02:18:57.521Z,4.00
2019-06-01T02:19:56.337Z,4.00
2019-06-01T02:20:56.282Z,8.00
2019-06-01T02:21:56.464Z,4.00
2019-06-01T02:22:56.765Z,8.00
2019-06-01T02:23:56.931Z,4.00
2019-06-01T02:24:55.938Z,8.00
2019-06-01T02:25:56.857Z,8.00
2019-06-01T02:26:57.114Z,8.00
2019-06-01T02:27:57.192Z,12.00
2019-06-01T02:28:55.614Z,12.00
2019-06-01T02:29:55.539Z,12.00
2019-06-01T02:30:56.152Z,16.00
2019-06-01T02:31:56.531Z,20.00
2019-06-01T02:32:56.312Z,20.00
2019-06-01T02:33:56.298Z,24.00
2019-06-01T02:34:56.398Z,24.00
2019-06-01T02:35:56.188Z,28.00
2019-06-01T02:36:56.350Z,32.00
2019-06-01T02:37:56.106Z,36.00
2019-06-01T02:38:56.414Z,40.00
2019-06-01T02:39:56.330Z,48.00
2019-06-01T02:40:54.880Z,52.00
2019-06-01T02:41:54.923Z,56.00
2019-06-01T02:42:55.019Z,64.00
2019-06-01T02:43:54.767Z,68.00
2019-06-01T02:44:55.076Z,68.00
2019-06-01T02:45:54.257Z,76.00
2019-06-01T02:46:55.335Z,80.00
2019-06-01T02:47:55.371Z,84.00
2019-06-01T02:48:55.391Z,88.00
2019-06-01T02:49:55.517Z,96.00
2019-06-01T02:50:55.633Z,100.00
2019-06-01T02:51:53.776Z,104.00
2019-06-01T02:52:53.690Z,112.00
2019-06-01T02:53:53.615Z,120.00
2019-06-01T02:54:53.528Z,128.00
2019-06-01T02:55:53.474Z,136.00
2019-06-01T02:56:53.378Z,144.00
2019-06-01T02:57:53.297Z,156.00
2019-06-01T02:58:53.216Z,164.00
2019-06-01T02:59:53.129Z,172.00
2019-06-01T03:00:53.052Z,180.00
2019-06-01T03:01:57.439Z,184.00
2019-06-01T03:02:52.891Z,200.00
2019-06-01T03:03:52.816Z,208.00
2019-06-01T03:04:52.730Z,220.00
2019-06-01T03:05:52.653Z,228.00
2019-06-01T03:06:52.579Z,240.00
2019-06-01T03:07:52.491Z,248.00
2019-06-01T03:08:52.417Z,264.00
2019-06-01T03:09:52.343Z,272.00
2019-06-01T03:10:52.266Z,288.00
2019-06-01T03:11:52.178Z,304.00
2019-06-01T03:12:52.097Z,316.00
2019-06-01T03:13:52.017Z,336.00
2019-06-01T03:14:51.943Z,352.00
2019-06-01T03:15:51.854Z,372.00
2019-06-01T03:16:51.785Z,384.00
2019-06-01T03:17:51.729Z,404.00
2019-06-01T03:18:51.618Z,424.00
2019-06-01T03:19:51.550Z,436.00
2019-06-01T03:20:51.458Z,456.00
2019-06-01T03:21:51.381Z,476.00
2019-06-01T03:22:51.305Z,496.00
2019-06-01T03:23:51.232Z,520.00
2019-06-01T03:24:51.143Z,540.00
2019-06-01T03:25:51.063Z,560.00
2019-06-01T03:26:50.980Z,580.00
2019-06-01T03:27:50.905Z,600.00
2019-06-01T03:28:50.829Z,616.00
2019-06-01T03:29:50.744Z,632.00
2019-06-01T03:30:50.657Z,648.00
2019-06-01T03:31:50.599Z,664.00
2019-06-01T03:32:50.507Z,676.00
2019-06-01T03:33:50.422Z,696.00
2019-06-01T03:34:50.344Z,712.00
2019-06-01T03:35:50.256Z,728.00
2019-06-01T03:36:50.196Z,748.00
2019-06-01T03:37:50.119Z,772.00
2019-06-01T03:38:50.023Z,792.00
2019-06-01T03:39:49.945Z,816.00
2019-06-01T03:40:49.857Z,844.00
2019-06-01T03:41:49.796Z,880.00
2019-06-01T03:42:49.707Z,908.00
2019-06-01T03:43:49.621Z,944.00
2019-06-01T03:44:49.545Z,976.00
2019-06-01T03:45:49.457Z,1008.00
2019-06-01T03:46:49.395Z,1036.00
2019-06-01T03:47:49.307Z,1056.00
2019-06-01T03:48:49.222Z,1076.00
2019-06-01T03:49:49.166Z,1092.00
2019-06-01T03:50:49.057Z,1108.00
2019-06-01T03:51:48.996Z,1124.00
2019-06-01T03:52:48.915Z,1140.00
2019-06-01T03:53:48.821Z,1148.00
2019-06-01T03:54:48.788Z,1160.00
2019-06-01T03:55:48.658Z,1176.00
2019-06-01T03:56:48.599Z,1192.00
2019-06-01T03:57:48.508Z,1216.00
2019-06-01T03:58:48.425Z,1244.00
2019-06-01T03:59:48.347Z,1280.00
2019-06-01T04:00:48.259Z,1304.00
2019-06-01T04:01:48.197Z,1324.00
2019-06-01T04:02:48.109Z,1372.00
2019-06-01T04:03:48.023Z,1416.00
2019-06-01T04:04:47.947Z,1464.00
2019-06-01T04:05:47.859Z,1516.00
2019-06-01T04:06:47.784Z,1552.00
2019-06-01T04:07:47.709Z,1544.00
2019-06-01T04:08:47.622Z,1524.00
2019-06-01T04:09:47.547Z,1508.00
2019-06-01T04:10:47.463Z,1500.00
2019-06-01T04:11:47.385Z,1500.00
2019-06-01T04:12:47.316Z,1540.00
2019-06-01T04:13:47.223Z,1596.00
2019-06-01T04:14:47.149Z,1696.00
2019-06-01T04:15:47.061Z,1844.00
2019-06-01T04:16:46.985Z,2016.00
2019-06-01T04:17:46.911Z,2208.00
2019-06-01T04:18:46.823Z,2328.00
2019-06-01T04:19:46.749Z,2420.00
2019-06-01T04:20:46.681Z,2540.00
2019-06-01T04:21:46.589Z,2708.00
2019-06-01T04:22:46.513Z,2868.00
2019-06-01T04:23:46.425Z,3032.00
2019-06-01T04:24:46.349Z,3192.00
2019-06-01T04:25:46.275Z,3376.00
2019-06-01T04:26:46.199Z,3480.00
2019-06-01T04:27:46.112Z,3540.00
2019-06-01T04:28:46.037Z,3456.00
2019-06-01T04:29:45.961Z,3400.00
2019-06-01T04:30:45.926Z,3272.00
2019-06-01T04:31:45.789Z,3088.00
2019-06-01T04:32:49.804Z,2780.00
2019-06-01T04:33:45.636Z,2704.00
2019-06-01T04:34:45.556Z,2680.00
2019-06-01T04:35:45.479Z,2792.00
2019-06-01T04:36:45.419Z,3128.00
2019-06-01T04:37:45.312Z,3740.00
2019-06-01T04:38:45.252Z,3980.00
2019-06-01T04:39:45.163Z,4296.00
2019-06-01T04:40:45.078Z,4252.00
2019-06-01T04:41:45.000Z,3676.00
2019-06-01T04:42:44.929Z,3236.00
2019-06-01T04:43:44.842Z,2856.00
2019-06-01T04:44:44.769Z,2500.00
2019-06-01T04:45:44.691Z,2468.00
2019-06-01T04:46:44.601Z,2388.00
2019-06-01T04:47:44.527Z,2344.00
2019-06-01T04:48:44.457Z,2408.00
2019-06-01T04:49:44.364Z,2728.00
2019-06-01T04:50:44.288Z,2948.00
2019-06-01T04:51:44.215Z,3284.00
2019-06-01T04:52:44.146Z,3680.00
2019-06-01T04:53:44.054Z,3952.00
2019-06-01T04:54:43.977Z,3672.00
2019-06-01T04:55:43.889Z,3188.00
2019-06-01T04:56:43.815Z,3648.00
2019-06-01T04:57:43.739Z,4116.00
2019-06-01T04:58:43.653Z,4368.00
2019-06-01T04:59:43.578Z,4664.00
2019-06-01T05:00:43.504Z,5420.00
2019-06-01T05:01:43.440Z,5336.00
2019-06-01T05:02:43.340Z,5152.00
2019-06-01T05:03:43.273Z,5120.00
2019-06-01T05:04:43.642Z,5008.00
2019-06-01T05:05:43.105Z,5044.00
2019-06-01T05:06:43.029Z,5020.00
2019-06-01T05:07:42.942Z,5304.00
2019-06-01T05:08:42.871Z,5152.00
2019-06-01T05:09:42.791Z,4980.00
2019-06-01T05:10:42.724Z,5020.00
2019-06-01T05:11:42.631Z,5380.00
2019-06-01T05:12:42.554Z,5244.00
2019-06-01T05:13:42.481Z,5460.00
2019-06-01T05:14:42.392Z,5680.00
2019-06-01T05:15:42.319Z,5332.00
2019-06-01T05:16:42.241Z,5420.00
2019-06-01T05:17:42.166Z,4924.00
2019-06-01T05:18:42.084Z,4372.00
2019-06-01T05:19:42.005Z,4816.00
2019-06-01T05:20:41.932Z,5040.00
2019-06-01T05:21:41.849Z,4864.00
2019-06-01T05:22:41.767Z,4912.00
2019-06-01T05:23:41.691Z,5436.00
2019-06-01T05:24:41.617Z,5480.00
2019-06-01T05:25:41.530Z,5304.00
2019-06-01T05:26:41.460Z,5012.00
2019-06-01T05:27:41.380Z,4976.00
2019-06-01T05:28:41.295Z,4816.00
2019-06-01T05:29:41.218Z,4896.00
2019-06-01T05:30:41.142Z,5068.00
2019-06-01T05:31:41.067Z,5808.00
2019-06-01T05:32:40.981Z,6084.00
2019-06-01T05:33:40.906Z,5956.00
2019-06-01T05:34:40.832Z,5692.00
2019-06-01T05:35:40.759Z,5744.00
2019-06-01T05:36:40.671Z,5792.00
2019-06-01T05:37:40.593Z,5964.00
2019-06-01T05:38:40.519Z,6008.00
2019-06-01T05:39:40.444Z,5712.00
2019-06-01T05:40:40.357Z,5104.00
2019-06-01T05:41:40.282Z,4776.00
2019-06-01T05:42:40.207Z,4756.00
2019-06-01T05:43:40.133Z,4696.00
2019-06-01T05:44:40.061Z,5348.00
2019-06-01T05:45:39.973Z,6028.00
2019-06-01T05:46:39.894Z,6508.00
2019-06-01T05:47:39.820Z,6380.00
2019-06-01T05:48:39.733Z,6556.00
2019-06-01T05:49:39.657Z,6940.00
2019-06-01T05:50:39.583Z,7708.00
2019-06-01T05:51:39.508Z,7724.00
2019-06-01T05:52:39.423Z,7064.00
2019-06-01T05:53:39.345Z,6544.00
2019-06-01T05:54:39.272Z,6612.00
2019-06-01T05:55:39.195Z,6768.00
2019-06-01T05:56:39.110Z,6436.00
2019-06-01T05:57:39.034Z,5684.00
2019-06-01T05:58:38.962Z,4884.00
2019-06-01T05:59:38.884Z,4696.00
2019-06-01T06:00:38.873Z,5264.00
2019-06-01T06:01:38.720Z,6332.00
2019-06-01T06:02:38.650Z,6492.00
2019-06-01T06:03:40.574Z,5676.00
2019-06-01T06:04:38.509Z,5472.00
2019-06-01T06:05:38.409Z,6116.00
2019-06-01T06:06:38.343Z,6920.00
2019-06-01T06:07:38.259Z,7252.00
2019-06-01T06:08:38.185Z,7212.00
2019-06-01T06:09:38.126Z,6404.00
2019-06-01T06:10:38.022Z,5792.00
2019-06-01T06:11:37.947Z,6364.00
2019-06-01T06:12:37.872Z,7756.00
2019-06-01T06:13:37.786Z,8496.00
2019-06-01T06:14:37.712Z,7700.00
2019-06-01T06:15:37.640Z,6936.00
2019-06-01T06:16:37.566Z,6308.00
2019-06-01T06:17:37.474Z,5992.00
2019-06-01T06:18:37.413Z,5496.00
2019-06-01T06:19:37.323Z,5500.00
2019-06-01T06:20:37.249Z,5540.00
2019-06-01T06:21:37.173Z,5656.00
2019-06-01T06:22:37.087Z,5792.00
2019-06-01T06:23:37.015Z,6492.00
2019-06-01T06:24:36.936Z,7048.00
2019-06-01T06:25:39.602Z,7608.00
2019-06-01T06:26:36.774Z,7800.00
2019-06-01T06:27:36.702Z,6472.00
2019-06-01T06:28:36.629Z,4840.00
2019-06-01T06:29:36.548Z,4732.00
2019-06-01T06:30:36.479Z,5576.00
2019-06-01T06:31:36.387Z,7148.00
2019-06-01T06:32:36.325Z,8112.00
2019-06-01T06:33:36.918Z,8520.00
2019-06-01T06:34:36.167Z,7664.00
2019-06-01T06:35:36.084Z,6636.00
2019-06-01T06:36:36.019Z,6528.00
2019-06-01T06:37:35.924Z,6920.00
2019-06-01T06:38:35.856Z,7968.00
2019-06-01T06:39:35.775Z,9764.00
2019-06-01T06:40:35.688Z,11132.00
2019-06-01T06:41:35.614Z,11296.00
2019-06-01T06:42:35.538Z,10700.00
2019-06-01T06:43:35.463Z,10220.00
2019-06-01T06:44:35.397Z,9460.00
2019-06-01T06:45:35.306Z,8640.00
2019-06-01T06:46:35.225Z,7928.00
2019-06-01T06:47:35.152Z,7808.00
2019-06-01T06:48:35.076Z,8216.00
2019-06-01T06:49:35.016Z,9344.00
2019-06-01T06:50:34.913Z,10336.00
2019-06-01T06:51:34.850Z,10716.00
2019-06-01T06:52:34.764Z,9184.00
2019-06-01T06:53:35.485Z,8644.00
2019-06-01T06:54:34.624Z,8984.00
2019-06-01T06:55:34.533Z,8252.00
2019-06-01T06:56:34.453Z,8920.00
2019-06-01T06:57:34.389Z,9732.00
2019-06-01T06:58:34.302Z,11008.00
2019-06-01T06:59:34.239Z,9388.00
2019-06-01T07:00:34.260Z,8724.00
2019-06-01T07:01:34.066Z,8364.00
2019-06-01T07:02:34.014Z,11812.00
2019-06-01T07:03:33.930Z,14124.00
2019-06-01T07:04:33.841Z,15448.00
2019-06-01T07:05:33.775Z,16452.00
2019-06-01T07:06:33.701Z,20256.00
2019-06-01T07:07:33.622Z,30720.00
2019-06-01T07:08:33.528Z,8364.00
2019-06-01T07:09:33.509Z,8224.00
2019-06-01T07:10:33.392Z,10108.00
2019-06-01T07:11:33.309Z,22080.00
2019-06-01T07:12:33.229Z,10568.00
2019-06-01T07:13:33.153Z,10520.00
2019-06-01T07:14:33.099Z,10700.00
2019-06-01T07:15:33.010Z,8936.00
2019-06-01T07:16:32.932Z,10808.00
2019-06-01T07:17:32.863Z,8356.00
2019-06-01T07:18:32.780Z,5656.00
2019-06-01T07:19:32.708Z,5672.00
2019-06-01T07:20:32.642Z,8192.00
2019-06-01T07:21:36.405Z,6720.00
2019-06-01T07:22:32.471Z,8668.00
2019-06-01T07:23:32.393Z,8848.00
2019-06-01T07:24:32.364Z,9620.00
2019-06-01T07:25:33.030Z,10776.00
2019-06-01T07:26:32.342Z,9240.00
2019-06-01T07:27:32.445Z,8768.00
2019-06-01T07:28:32.428Z,8696.00
2019-06-01T07:29:32.483Z,9824.00
2019-06-01T07:30:36.865Z,10768.00
2019-06-01T07:31:32.503Z,8548.00
2019-06-01T07:32:32.810Z,8432.00
2019-06-01T07:33:32.641Z,8588.00
2019-06-01T07:34:41.357Z,9748.00
2019-06-01T07:35:32.534Z,11708.00
2019-06-01T07:36:32.608Z,14632.00
2019-06-01T07:37:31.331Z,15788.00
2019-06-01T07:38:31.283Z,12416.00
2019-06-01T07:39:31.185Z,9796.00
2019-06-01T07:40:31.107Z,8372.00
2019-06-01T07:41:31.032Z,7696.00
2019-06-01T07:42:30.957Z,7076.00
2019-06-01T07:43:30.884Z,8304.00
2019-06-01T07:44:30.822Z,7476.00
2019-06-01T07:45:33.573Z,7280.00
2019-06-01T07:46:30.656Z,8100.00
2019-06-01T07:47:30.582Z,8452.00
2019-06-01T07:48:30.508Z,15632.00
2019-06-01T07:49:31.184Z,15772.00
2019-06-01T07:50:30.358Z,15180.00
2019-06-01T07:51:31.559Z,14708.00
2019-06-01T07:52:30.207Z,15572.00
2019-06-01T07:53:31.405Z,15268.00
2019-06-01T07:54:30.057Z,15912.00
2019-06-01T07:55:29.983Z,13604.00
2019-06-01T07:56:29.908Z,12632.00
2019-06-01T07:57:29.911Z,13564.00
2019-06-01T07:58:29.771Z,14340.00
2019-06-01T07:59:30.560Z,10792.00
2019-06-01T08:00:29.614Z,7444.00
2019-06-01T08:01:30.907Z,6292.00
2019-06-01T08:02:30.698Z,9616.00
2019-06-01T08:03:32.908Z,7888.00
2019-06-01T08:04:31.753Z,9420.00
2019-06-01T08:05:30.069Z,13564.00
2019-06-01T08:06:31.065Z,14000.00
2019-06-01T08:07:29.273Z,9232.00
2019-06-01T08:08:29.477Z,8372.00
2019-06-01T08:09:29.581Z,11700.00
2019-06-01T08:10:29.654Z,11688.00
2019-06-01T08:11:32.095Z,11700.00
2019-06-01T08:12:29.660Z,11836.00
2019-06-01T08:13:33.140Z,11948.00
2019-06-01T08:14:28.671Z,11936.00
2019-06-01T08:15:29.500Z,11648.00
2019-06-01T08:16:29.904Z,11468.00
2019-06-01T08:17:28.382Z,11744.00
2019-06-01T08:18:28.363Z,12412.00
2019-06-01T08:19:28.237Z,12320.00
2019-06-01T08:20:28.657Z,14132.00
2019-06-01T08:21:28.191Z,14948.00
2019-06-01T08:22:28.057Z,15340.00
2019-06-01T08:23:28.386Z,13072.00
2019-06-01T08:24:28.292Z,17408.00
2019-06-01T08:25:28.556Z,17792.00
2019-06-01T08:26:28.560Z,19360.00
2019-06-01T08:27:28.464Z,18848.00
2019-06-01T08:28:28.938Z,15060.00
2019-06-01T08:29:28.727Z,15200.00
2019-06-01T08:30:28.532Z,12468.00
2019-06-01T08:31:28.591Z,13448.00
2019-06-01T08:32:28.607Z,14596.00
2019-06-01T08:33:30.226Z,14620.00
2019-06-01T08:34:27.200Z,14624.00
2019-06-01T08:35:27.126Z,14316.00
2019-06-01T08:36:27.308Z,13836.00
2019-06-01T08:37:27.233Z,10800.00
2019-06-01T08:38:27.456Z,14396.00
2019-06-01T08:39:27.389Z,14736.00
2019-06-01T08:40:27.377Z,14988.00
2019-06-01T08:41:27.583Z,14352.00
2019-06-01T08:42:27.413Z,14384.00
2019-06-01T08:43:27.524Z,14892.00
2019-06-01T08:44:27.579Z,15820.00
2019-06-01T08:45:27.564Z,15920.00
2019-06-01T08:46:27.578Z,12972.00
2019-06-01T08:47:27.717Z,13392.00
2019-06-01T08:48:26.247Z,16256.00
2019-06-01T08:49:26.176Z,18016.00
2019-06-01T08:50:26.102Z,18304.00
2019-06-01T08:51:26.511Z,18560.00
2019-06-01T08:52:26.017Z,18304.00
2019-06-01T08:53:25.889Z,18272.00
2019-06-01T08:54:25.991Z,17632.00
2019-06-01T08:55:26.095Z,16484.00
2019-06-01T08:56:26.205Z,12304.00
2019-06-01T08:57:26.114Z,15432.00
2019-06-01T08:58:26.233Z,15928.00
2019-06-01T08:59:26.229Z,17440.00
2019-06-01T09:00:26.366Z,17024.00
2019-06-01T09:01:26.344Z,15260.00
2019-06-01T09:02:26.492Z,14720.00
2019-06-01T09:03:25.829Z,19680.00
2019-06-01T09:04:25.142Z,19968.00
2019-06-01T09:05:26.800Z,18528.00
2019-06-01T09:06:25.028Z,14304.00
2019-06-01T09:07:24.940Z,13048.00
2019-06-01T09:08:25.594Z,13992.00
2019-06-01T09:09:24.940Z,19296.00
2019-06-01T09:10:25.226Z,18688.00
2019-06-01T09:11:25.069Z,18016.00
2019-06-01T09:12:25.091Z,18880.00
2019-06-01T09:13:25.136Z,19168.00
2019-06-01T09:14:25.201Z,18528.00
2019-06-01T09:15:25.586Z,19040.00
2019-06-01T09:16:25.341Z,19488.00
2019-06-01T09:17:25.265Z,17024.00
2019-06-01T09:18:25.619Z,17504.00
2019-06-01T09:19:25.321Z,16992.00
2019-06-01T09:20:25.387Z,16372.00
2019-06-01T09:21:25.267Z,18048.00
2019-06-01T09:22:25.285Z,19328.00
2019-06-01T09:23:23.856Z,19776.00
2019-06-01T09:24:23.792Z,20864.00
2019-06-01T09:25:23.721Z,22016.00
2019-06-01T09:26:23.655Z,22400.00
2019-06-01T09:27:23.648Z,22880.00
2019-06-01T09:28:23.521Z,23296.00
2019-06-01T09:29:23.461Z,22208.00
2019-06-01T09:30:23.392Z,23648.00
2019-06-01T09:31:23.318Z,25856.00
2019-06-01T09:32:23.256Z,27136.00
2019-06-01T09:33:23.193Z,27936.00
2019-06-01T09:34:23.121Z,24960.00
2019-06-01T09:35:23.057Z,24128.00
2019-06-01T09:36:22.994Z,19040.00
2019-06-01T09:37:22.918Z,19136.00
2019-06-01T09:38:22.857Z,19264.00
2019-06-01T09:39:22.794Z,16824.00
2019-06-01T09:40:22.719Z,18400.00
2019-06-01T09:41:22.659Z,14448.00
2019-06-01T09:42:22.594Z,16024.00
2019-06-01T09:43:22.520Z,16148.00
2019-06-01T09:44:22.457Z,15952.00
2019-06-01T09:45:22.394Z,12524.00
2019-06-01T09:46:22.319Z,14412.00
2019-06-01T09:47:22.264Z,16576.00
2019-06-01T09:48:22.182Z,16360.00
2019-06-01T09:49:22.122Z,10760.00
2019-06-01T09:50:22.059Z,9056.00
2019-06-01T09:51:21.984Z,10680.00
2019-06-01T09:52:21.926Z,13868.00
2019-06-01T09:53:21.850Z,15528.00
2019-06-01T09:54:21.784Z,13392.00
2019-06-01T09:55:21.709Z,10260.00
2019-06-01T09:56:21.654Z,12028.00
2019-06-01T09:57:21.658Z,17208.00
2019-06-01T09:58:21.518Z,19424.00
2019-06-01T09:59:21.442Z,18400.00
2019-06-01T10:00:21.370Z,8420.00
2019-06-01T10:01:21.308Z,15120.00
2019-06-01T10:02:21.297Z,19104.00
2019-06-01T10:03:21.159Z,19264.00
2019-06-01T10:04:21.093Z,14376.00
2019-06-01T10:05:21.021Z,14020.00
2019-06-01T10:06:20.946Z,12480.00
2019-06-01T10:07:20.884Z,10376.00
2019-06-01T10:08:20.810Z,10260.00
2019-06-01T10:09:20.743Z,10912.00
2019-06-01T10:10:20.671Z,11080.00
2019-06-01T10:11:20.601Z,11104.00
2019-06-01T10:12:20.706Z,11600.00
2019-06-01T10:13:20.461Z,11336.00
2019-06-01T10:14:20.400Z,10112.00
2019-06-01T10:15:20.335Z,8804.00
2019-06-01T10:16:20.253Z,11268.00
2019-06-01T10:17:20.187Z,10240.00
2019-06-01T10:18:20.111Z,11636.00
2019-06-01T10:19:20.043Z,11252.00
2019-06-01T10:20:19.973Z,10888.00
2019-06-01T10:21:19.898Z,9812.00
2019-06-01T10:22:19.836Z,10152.00
2019-06-01T10:23:19.761Z,11064.00
2019-06-01T10:24:19.688Z,11672.00
2019-06-01T10:25:19.623Z,11660.00
2019-06-01T10:26:19.550Z,11576.00
2019-06-01T10:27:19.475Z,11148.00
2019-06-01T10:28:19.415Z,12208.00
2019-06-01T10:29:19.337Z,13776.00
2019-06-01T10:30:19.261Z,11936.00
2019-06-01T10:31:19.190Z,11564.00
2019-06-01T10:32:19.123Z,11548.00
2019-06-01T10:33:19.052Z,12796.00
2019-06-01T10:34:18.975Z,13332.00
2019-06-01T10:35:18.916Z,16248.00
2019-06-01T10:36:21.160Z,14464.00
2019-06-01T10:37:18.762Z,9592.00
2019-06-01T10:38:18.755Z,8272.00
2019-06-01T10:39:19.756Z,8216.00
2019-06-01T10:40:18.550Z,23712.00
2019-06-01T10:41:18.489Z,16140.00
2019-06-01T10:42:18.415Z,14680.00
2019-06-01T10:43:18.338Z,22240.00
2019-06-01T10:44:18.282Z,13040.00
2019-06-01T10:45:18.201Z,12984.00
2019-06-01T10:46:18.127Z,14372.00
2019-06-01T10:47:18.069Z,19584.00
2019-06-01T10:48:17.993Z,27744.00
2019-06-01T10:49:17.926Z,30560.00
2019-06-01T10:50:17.876Z,28864.00
2019-06-01T10:51:17.789Z,27072.00
2019-06-01T10:52:17.715Z,28768.00
2019-06-01T10:53:17.652Z,30560.00
2019-06-01T10:54:17.628Z,30400.00
2019-06-01T10:55:17.526Z,30784.00
2019-06-01T10:56:17.441Z,32736.00
2019-06-01T10:57:17.376Z,36160.00
2019-06-01T10:58:17.320Z,35808.00
2019-06-01T10:59:17.239Z,34656.00
2019-06-01T11:00:17.176Z,34400.00
2019-06-01T11:01:17.119Z,35168.00
2019-06-01T11:02:17.052Z,39392.00
2019-06-01T11:03:16.977Z,38048.00
2019-06-01T11:04:16.914Z,12464.00
2019-06-01T11:05:16.858Z,32768.00
2019-06-01T11:06:16.790Z,9904.00
2019-06-01T11:07:16.727Z,8220.00
2019-06-01T11:08:16.659Z,8604.00
2019-06-01T11:09:16.596Z,32928.00
2019-06-01T11:10:16.527Z,33440.00
2019-06-01T11:11:16.467Z,33984.00
2019-06-01T11:12:16.404Z,37088.00
2019-06-01T11:13:16.329Z,12144.00
2019-06-01T11:14:16.266Z,36864.00
2019-06-01T11:15:16.203Z,29600.00
2019-06-01T11:16:16.142Z,13508.00
2019-06-01T11:17:16.068Z,11552.00
2019-06-01T11:18:16.004Z,10876.00
2019-06-01T11:19:15.942Z,11108.00
2019-06-01T11:20:15.879Z,39392.00
2019-06-01T11:21:15.806Z,41088.00
2019-06-01T11:22:15.742Z,41728.00
2019-06-01T11:23:15.680Z,41728.00
2019-06-01T11:24:15.617Z,40288.00
2019-06-01T11:25:15.542Z,40416.00
2019-06-01T11:26:15.492Z,42176.00
2019-06-01T11:27:15.482Z,36224.00
2019-06-01T11:28:15.405Z,43136.00
2019-06-01T11:29:15.294Z,44992.00
2019-06-01T11:30:15.221Z,47040.00
2019-06-01T11:31:15.155Z,47360.00
2019-06-01T11:32:15.096Z,48864.00
2019-06-01T11:33:15.035Z,20000.00
2019-06-01T11:34:14.966Z,46880.00
2019-06-01T11:35:14.894Z,50752.00
2019-06-01T11:36:14.830Z,51136.00
2019-06-01T11:37:15.782Z,51680.00
2019-06-01T11:38:14.707Z,43040.00
2019-06-01T11:39:14.646Z,13248.00
2019-06-01T11:40:14.575Z,42816.00
2019-06-01T11:41:18.340Z,55776.00
2019-06-01T11:42:14.445Z,57472.00
2019-06-01T11:43:14.402Z,57760.00
2019-06-01T11:44:14.321Z,59040.00
2019-06-01T11:45:14.261Z,22688.00
2019-06-01T11:46:14.183Z,11116.00
2019-06-01T11:47:14.121Z,14904.00
2019-06-01T11:48:14.060Z,55488.00
2019-06-01T11:49:14.000Z,53120.00
2019-06-01T11:50:13.933Z,54688.00
2019-06-01T11:51:13.884Z,55808.00
2019-06-01T11:52:13.809Z,56512.00
2019-06-01T11:53:13.733Z,57600.00
2019-06-01T11:54:13.671Z,55904.00
2019-06-01T11:55:13.607Z,55776.00
2019-06-01T11:56:13.545Z,56128.00
2019-06-01T11:57:13.485Z,55072.00
2019-06-01T11:58:13.428Z,56384.00
2019-06-01T11:59:13.360Z,56672.00
2019-06-01T12:00:13.296Z,56608.00
2019-06-01T12:01:13.222Z,54784.00
2019-06-01T12:02:13.160Z,54848.00
2019-06-01T12:03:13.098Z,56896.00
2019-06-01T12:04:13.033Z,54304.00
2019-06-01T12:05:12.972Z,55328.00
2019-06-01T12:06:12.911Z,13888.00
2019-06-01T12:07:17.569Z,30176.00
2019-06-01T12:08:12.784Z,59264.00
2019-06-01T12:09:12.722Z,57824.00
2019-06-01T12:10:12.660Z,57216.00
2019-06-01T12:11:12.585Z,60096.00
2019-06-01T12:12:12.522Z,61152.00
2019-06-01T12:13:12.460Z,60544.00